sensor_id;sensor_type;location;lat;lon;timestamp;pressure;altitude;pressure_sealevel;temperature;humidity
65872;BME280;52653;50.080;21.992;2023-05-22T00:02:57;99436.85;;;8.11;81.99
65872;BME280;52653;50.080;21.992;2023-05-22T00:05:50;99437.01;;;8.07;82.24
65872;BME280;52653;50.080;21.992;2023-05-22T00:08:43;99437.52;;;8.04;82.27
65872;BME280;52653;50.080;21.992;2023-05-22T00:11:37;99436.27;;;8.01;82.06
65872;BME280;52653;50.080;21.992;2023-05-22T00:14:29;99433.27;;;7.97;82.20
65872;BME280;52653;50.080;21.992;2023-05-22T00:17:24;99433.42;;;7.94;82.53
65872;BME280;52653;50.080;21.992;2023-05-22T00:20:15;99439.00;;;7.90;82.85
65872;BME280;52653;50.080;21.992;2023-05-22T00:23:08;99439.48;;;7.86;82.87
65872;BME280;52653;50.080;21.992;2023-05-22T00:26:04;99436.48;;;7.82;82.87
65872;BME280;52653;50.080;21.992;2023-05-22T00:28:57;99432.28;;;7.78;82.89
65872;BME280;52653;50.080;21.992;2023-05-22T00:31:49;99429.66;;;7.78;82.71
65872;BME280;52653;50.080;21.992;2023-05-22T00:34:42;99432.06;;;7.74;82.56
65872;BME280;52653;50.080;21.992;2023-05-22T00:37:35;99431.85;;;7.70;82.55
65872;BME280;52653;50.080;21.992;2023-05-22T00:40:21;99427.83;;;7.67;82.71
65872;BME280;52653;50.080;21.992;2023-05-22T00:43:14;99423.80;;;7.65;83.05
65872;BME280;52653;50.080;21.992;2023-05-22T00:46:07;99422.70;;;7.61;83.15
65872;BME280;52653;50.080;21.992;2023-05-22T00:48:59;99426.70;;;7.57;83.37
65872;BME280;52653;50.080;21.992;2023-05-22T00:51:46;99431.40;;;7.54;83.31
65872;BME280;52653;50.080;21.992;2023-05-22T00:54:38;99432.95;;;7.52;83.39
65872;BME280;52653;50.080;21.992;2023-05-22T00:57:32;99429.46;;;7.50;83.53
65872;BME280;52653;50.080;21.992;2023-05-22T01:00:19;99425.75;;;7.48;83.64
65872;BME280;52653;50.080;21.992;2023-05-22T01:03:12;99425.21;;;7.47;83.65
65872;BME280;52653;50.080;21.992;2023-05-22T01:06:06;99421.37;;;7.45;83.71
65872;BME280;52653;50.080;21.992;2023-05-22T01:08:59;99420.30;;;7.43;83.79
65872;BME280;52653;50.080;21.992;2023-05-22T01:11:58;99416.29;;;7.41;83.93
65872;BME280;52653;50.080;21.992;2023-05-22T01:14:58;99412.44;;;7.39;84.22
65872;BME280;52653;50.080;21.992;2023-05-22T01:18:00;99416.42;;;7.37;84.22
65872;BME280;52653;50.080;21.992;2023-05-22T01:20:59;99417.77;;;7.34;84.22
65872;BME280;52653;50.080;21.992;2023-05-22T01:27:45;99420.33;;;7.25;84.40
65872;BME280;52653;50.080;21.992;2023-05-22T01:30:57;99421.55;;;7.24;84.49
65872;BME280;52653;50.080;21.992;2023-05-22T01:33:55;99419.59;;;7.22;84.62
65872;BME280;52653;50.080;21.992;2023-05-22T01:36:51;99415.23;;;7.21;84.85
65872;BME280;52653;50.080;21.992;2023-05-22T01:39:44;99414.36;;;7.22;84.84
65872;BME280;52653;50.080;21.992;2023-05-22T01:42:31;99419.77;;;7.22;84.95
65872;BME280;52653;50.080;21.992;2023-05-22T01:45:24;99416.45;;;7.21;84.94
65872;BME280;52653;50.080;21.992;2023-05-22T01:48:17;99413.81;;;7.20;85.02
65872;BME280;52653;50.080;21.992;2023-05-22T01:51:09;99413.11;;;7.19;85.05
65872;BME280;52653;50.080;21.992;2023-05-22T01:54:09;99412.23;;;7.16;85.27
65872;BME280;52653;50.080;21.992;2023-05-22T01:57:11;99410.82;;;7.15;85.28
65872;BME280;52653;50.080;21.992;2023-05-22T02:00:09;99405.22;;;7.12;85.35
65872;BME280;52653;50.080;21.992;2023-05-22T02:02:50;99404.35;;;7.13;85.27
65872;BME280;52653;50.080;21.992;2023-05-22T02:05:43;99403.98;;;7.11;85.29
65872;BME280;52653;50.080;21.992;2023-05-22T02:08:40;99405.67;;;7.07;85.24
65872;BME280;52653;50.080;21.992;2023-05-22T02:11:34;99404.95;;;7.03;85.28
65872;BME280;52653;50.080;21.992;2023-05-22T02:14:30;99407.55;;;7.01;85.16
65872;BME280;52653;50.080;21.992;2023-05-22T02:17:21;99400.88;;;6.97;85.23
65872;BME280;52653;50.080;21.992;2023-05-22T02:20:15;99402.75;;;6.92;85.33
65872;BME280;52653;50.080;21.992;2023-05-22T02:23:08;99398.90;;;6.90;85.35
65872;BME280;52653;50.080;21.992;2023-05-22T02:26:02;99397.13;;;6.87;85.83
65872;BME280;52653;50.080;21.992;2023-05-22T02:28:56;99403.00;;;6.84;85.93
65872;BME280;52653;50.080;21.992;2023-05-22T02:31:48;99400.38;;;6.83;85.97
65872;BME280;52653;50.080;21.992;2023-05-22T02:34:43;99400.89;;;6.82;86.24
65872;BME280;52653;50.080;21.992;2023-05-22T02:37:36;99406.98;;;6.80;86.24
65872;BME280;52653;50.080;21.992;2023-05-22T02:40:29;99416.39;;;6.80;86.15
65872;BME280;52653;50.080;21.992;2023-05-22T02:43:23;99413.44;;;6.81;86.26
65872;BME280;52653;50.080;21.992;2023-05-22T02:46:08;99413.06;;;6.78;86.51
65872;BME280;52653;50.080;21.992;2023-05-22T02:49:01;99418.84;;;6.81;86.31
65872;BME280;52653;50.080;21.992;2023-05-22T02:51:53;99418.16;;;6.83;86.40
65872;BME280;52653;50.080;21.992;2023-05-22T02:54:47;99416.61;;;6.85;86.51
65872;BME280;52653;50.080;21.992;2023-05-22T02:57:40;99412.48;;;6.86;86.63
65872;BME280;52653;50.080;21.992;2023-05-22T03:00:33;99412.66;;;6.89;86.76
65872;BME280;52653;50.080;21.992;2023-05-22T03:03:26;99412.50;;;6.91;86.85
65872;BME280;52653;50.080;21.992;2023-05-22T03:06:13;99410.13;;;6.97;86.82
65872;BME280;52653;50.080;21.992;2023-05-22T03:09:07;99410.36;;;7.04;86.62
65872;BME280;52653;50.080;21.992;2023-05-22T03:12:01;99407.96;;;7.08;86.65
65872;BME280;52653;50.080;21.992;2023-05-22T03:14:53;99404.36;;;7.15;86.78
65872;BME280;52653;50.080;21.992;2023-05-22T03:17:46;99404.63;;;7.24;86.84
65872;BME280;52653;50.080;21.992;2023-05-22T03:20:39;99405.55;;;7.32;86.77
65872;BME280;52653;50.080;21.992;2023-05-22T03:23:33;99405.13;;;7.42;86.54
65872;BME280;52653;50.080;21.992;2023-05-22T03:26:27;99402.41;;;7.53;86.52
65872;BME280;52653;50.080;21.992;2023-05-22T03:29:20;99405.45;;;7.63;86.33
65872;BME280;52653;50.080;21.992;2023-05-22T03:32:12;99410.59;;;7.75;86.14
65872;BME280;52653;50.080;21.992;2023-05-22T03:35:07;99411.38;;;7.87;86.05
65872;BME280;52653;50.080;21.992;2023-05-22T03:37:59;99415.64;;;7.98;86.15
65872;BME280;52653;50.080;21.992;2023-05-22T03:40:52;99413.29;;;8.13;85.81
65872;BME280;52653;50.080;21.992;2023-05-22T03:43:37;99413.70;;;8.27;85.65
65872;BME280;52653;50.080;21.992;2023-05-22T03:46:34;99412.92;;;8.41;85.61
65872;BME280;52653;50.080;21.992;2023-05-22T03:49:27;99408.61;;;8.55;85.56
65872;BME280;52653;50.080;21.992;2023-05-22T03:52:20;99407.25;;;8.69;85.35
65872;BME280;52653;50.080;21.992;2023-05-22T03:55:13;99401.87;;;8.83;85.08
65872;BME280;52653;50.080;21.992;2023-05-22T03:58:06;99404.36;;;8.98;84.85
65872;BME280;52653;50.080;21.992;2023-05-22T04:00:59;99406.13;;;9.13;84.34
65872;BME280;52653;50.080;21.992;2023-05-22T04:03:52;99408.77;;;9.27;83.93
65872;BME280;52653;50.080;21.992;2023-05-22T04:06:45;99405.96;;;9.44;83.84
65872;BME280;52653;50.080;21.992;2023-05-22T04:09:35;99407.00;;;9.67;83.41
65872;BME280;52653;50.080;21.992;2023-05-22T04:12:26;99408.39;;;9.86;82.67
65872;BME280;52653;50.080;21.992;2023-05-22T04:15:19;99407.99;;;10.05;82.62
65872;BME280;52653;50.080;21.992;2023-05-22T04:18:16;99406.38;;;10.27;82.24
65872;BME280;52653;50.080;21.992;2023-05-22T04:21:09;99404.73;;;10.49;81.75
65872;BME280;52653;50.080;21.992;2023-05-22T04:23:55;99406.18;;;10.76;81.33
65872;BME280;52653;50.080;21.992;2023-05-22T04:26:48;99399.14;;;11.06;80.74
65872;BME280;52653;50.080;21.992;2023-05-22T04:29:42;99394.66;;;11.44;79.66
65872;BME280;52653;50.080;21.992;2023-05-22T04:32:30;99397.08;;;11.90;78.43
65872;BME280;52653;50.080;21.992;2023-05-22T04:35:22;99395.99;;;12.26;76.78
65872;BME280;52653;50.080;21.992;2023-05-22T04:38:13;99389.70;;;12.77;75.69
65872;BME280;52653;50.080;21.992;2023-05-22T04:40:58;99389.65;;;13.42;74.49
65872;BME280;52653;50.080;21.992;2023-05-22T04:43:52;99381.79;;;14.08;72.45
65872;BME280;52653;50.080;21.992;2023-05-22T04:46:45;99375.05;;;14.71;70.17
65872;BME280;52653;50.080;21.992;2023-05-22T04:49:31;99373.80;;;15.26;68.51
65872;BME280;52653;50.080;21.992;2023-05-22T04:52:24;99374.88;;;15.82;66.68
65872;BME280;52653;50.080;21.992;2023-05-22T04:55:17;99372.99;;;16.26;63.74
65872;BME280;52653;50.080;21.992;2023-05-22T04:58:11;99374.28;;;16.67;61.91
65872;BME280;52653;50.080;21.992;2023-05-22T05:01:04;99378.13;;;17.10;61.59
65872;BME280;52653;50.080;21.992;2023-05-22T05:03:56;99376.02;;;17.53;59.42
65872;BME280;52653;50.080;21.992;2023-05-22T05:06:50;99378.11;;;17.92;58.67
65872;BME280;52653;50.080;21.992;2023-05-22T05:09:45;99378.46;;;18.27;57.63
65872;BME280;52653;50.080;21.992;2023-05-22T05:12:37;99377.11;;;18.54;55.72
65872;BME280;52653;50.080;21.992;2023-05-22T05:15:32;99376.52;;;18.60;54.60
65872;BME280;52653;50.080;21.992;2023-05-22T05:18:26;99380.73;;;18.37;54.24
65872;BME280;52653;50.080;21.992;2023-05-22T05:21:22;99381.17;;;18.10;55.34
65872;BME280;52653;50.080;21.992;2023-05-22T05:24:18;99381.64;;;17.87;55.80
65872;BME280;52653;50.080;21.992;2023-05-22T05:27:04;99387.30;;;17.61;55.49
65872;BME280;52653;50.080;21.992;2023-05-22T05:29:57;99387.83;;;17.39;55.71
65872;BME280;52653;50.080;21.992;2023-05-22T05:32:51;99394.48;;;17.20;56.75
65872;BME280;52653;50.080;21.992;2023-05-22T05:35:45;99391.93;;;17.05;57.57
65872;BME280;52653;50.080;21.992;2023-05-22T05:38:40;99389.59;;;17.00;57.99
65872;BME280;52653;50.080;21.992;2023-05-22T05:41:33;99395.50;;;16.93;57.49
65872;BME280;52653;50.080;21.992;2023-05-22T05:44:26;99393.55;;;16.87;57.50
65872;BME280;52653;50.080;21.992;2023-05-22T05:47:20;99392.91;;;16.90;58.11
65872;BME280;52653;50.080;21.992;2023-05-22T05:50:09;99390.40;;;16.97;57.26
65872;BME280;52653;50.080;21.992;2023-05-22T05:53:02;99390.26;;;17.01;57.20
65872;BME280;52653;50.080;21.992;2023-05-22T05:55:55;99394.67;;;17.08;57.18
65872;BME280;52653;50.080;21.992;2023-05-22T05:58:48;99397.98;;;17.16;57.02
65872;BME280;52653;50.080;21.992;2023-05-22T06:01:42;99394.46;;;17.26;57.18
65872;BME280;52653;50.080;21.992;2023-05-22T06:04:36;99392.85;;;17.32;56.50
65872;BME280;52653;50.080;21.992;2023-05-22T06:07:26;99390.05;;;17.31;56.37
65872;BME280;52653;50.080;21.992;2023-05-22T06:10:19;99388.91;;;17.39;56.46
65872;BME280;52653;50.080;21.992;2023-05-22T06:13:12;99383.61;;;17.44;56.30
65872;BME280;52653;50.080;21.992;2023-05-22T06:16:06;99386.38;;;17.51;56.10
65872;BME280;52653;50.080;21.992;2023-05-22T06:19:00;99384.02;;;17.58;56.61
65872;BME280;52653;50.080;21.992;2023-05-22T06:21:47;99379.33;;;17.71;56.21
65872;BME280;52653;50.080;21.992;2023-05-22T06:24:42;99380.96;;;17.86;56.21
65872;BME280;52653;50.080;21.992;2023-05-22T06:27:35;99377.52;;;18.03;55.95
65872;BME280;52653;50.080;21.992;2023-05-22T06:30:27;99380.18;;;18.13;54.47
65872;BME280;52653;50.080;21.992;2023-05-22T06:33:31;99376.72;;;18.21;54.56
65872;BME280;52653;50.080;21.992;2023-05-22T06:36:25;99376.50;;;18.27;53.98
65872;BME280;52653;50.080;21.992;2023-05-22T06:39:20;99370.38;;;18.34;54.85
65872;BME280;52653;50.080;21.992;2023-05-22T06:42:18;99369.83;;;18.44;54.60
65872;BME280;52653;50.080;21.992;2023-05-22T06:45:12;99365.36;;;18.49;54.15
65872;BME280;52653;50.080;21.992;2023-05-22T06:47:55;99364.71;;;18.52;53.71
65872;BME280;52653;50.080;21.992;2023-05-22T06:50:48;99365.97;;;18.52;52.69
65872;BME280;52653;50.080;21.992;2023-05-22T06:53:33;99367.16;;;18.49;53.07
65872;BME280;52653;50.080;21.992;2023-05-22T06:56:09;99370.19;;;18.44;52.98
65872;BME280;52653;50.080;21.992;2023-05-22T06:59:06;99369.58;;;18.46;53.73
65872;BME280;52653;50.080;21.992;2023-05-22T07:01:59;99368.39;;;18.49;54.47
65872;BME280;52653;50.080;21.992;2023-05-22T07:04:52;99361.71;;;18.62;55.37
65872;BME280;52653;50.080;21.992;2023-05-22T07:07:51;99363.12;;;18.76;54.53
65872;BME280;52653;50.080;21.992;2023-05-22T07:10:42;99357.48;;;18.85;53.66
65872;BME280;52653;50.080;21.992;2023-05-22T07:13:16;99363.67;;;18.94;53.73
65872;BME280;52653;50.080;21.992;2023-05-22T07:16:01;99364.40;;;18.99;52.73
65872;BME280;52653;50.080;21.992;2023-05-22T07:18:44;99361.77;;;19.02;52.14
65872;BME280;52653;50.080;21.992;2023-05-22T07:21:32;99358.67;;;19.08;53.42
65872;BME280;52653;50.080;21.992;2023-05-22T07:24:26;99355.19;;;19.15;54.02
65872;BME280;52653;50.080;21.992;2023-05-22T07:27:19;99355.21;;;19.19;51.80
65872;BME280;52653;50.080;21.992;2023-05-22T07:30:13;99360.26;;;19.22;51.42
65872;BME280;52653;50.080;21.992;2023-05-22T07:32:46;99362.05;;;19.22;51.34
65872;BME280;52653;50.080;21.992;2023-05-22T07:35:21;99363.20;;;19.24;50.96
65872;BME280;52653;50.080;21.992;2023-05-22T07:38:04;99358.06;;;19.32;51.81
65872;BME280;52653;50.080;21.992;2023-05-22T07:40:37;99357.38;;;19.40;52.03
65872;BME280;52653;50.080;21.992;2023-05-22T07:43:31;99353.33;;;19.52;52.81
65872;BME280;52653;50.080;21.992;2023-05-22T07:46:24;99355.80;;;19.65;51.50
65872;BME280;52653;50.080;21.992;2023-05-22T07:49:01;99357.04;;;19.75;49.81
65872;BME280;52653;50.080;21.992;2023-05-22T07:51:34;99355.10;;;19.82;50.04
65872;BME280;52653;50.080;21.992;2023-05-22T07:54:10;99353.44;;;19.88;48.98
65872;BME280;52653;50.080;21.992;2023-05-22T07:56:55;99354.34;;;19.91;49.01
65872;BME280;52653;50.080;21.992;2023-05-22T07:59:29;99355.27;;;19.86;48.04
65872;BME280;52653;50.080;21.992;2023-05-22T08:02:08;99355.80;;;19.87;48.83
65872;BME280;52653;50.080;21.992;2023-05-22T08:04:41;99356.30;;;19.91;48.92
65872;BME280;52653;50.080;21.992;2023-05-22T08:07:18;99359.73;;;20.02;49.07
65872;BME280;52653;50.080;21.992;2023-05-22T08:09:53;99354.06;;;20.06;47.63
65872;BME280;52653;50.080;21.992;2023-05-22T08:12:27;99351.43;;;20.09;48.88
65872;BME280;52653;50.080;21.992;2023-05-22T08:15:03;99350.27;;;20.19;49.30
65872;BME280;52653;50.080;21.992;2023-05-22T08:17:38;99348.48;;;20.27;49.48
65872;BME280;52653;50.080;21.992;2023-05-22T08:20:23;99344.45;;;20.38;48.68
65872;BME280;52653;50.080;21.992;2023-05-22T08:23:16;99342.76;;;20.39;47.27
65872;BME280;52653;50.080;21.992;2023-05-22T08:25:52;99345.36;;;20.37;47.25
65872;BME280;52653;50.080;21.992;2023-05-22T08:28:29;99343.31;;;20.35;47.20
65872;BME280;52653;50.080;21.992;2023-05-22T08:31:02;99341.66;;;20.36;47.22
65872;BME280;52653;50.080;21.992;2023-05-22T08:33:37;99344.42;;;20.34;48.07
65872;BME280;52653;50.080;21.992;2023-05-22T08:36:11;99339.14;;;20.33;48.72
65872;BME280;52653;50.080;21.992;2023-05-22T08:38:47;99338.38;;;20.35;47.48
65872;BME280;52653;50.080;21.992;2023-05-22T08:41:20;99341.12;;;20.40;47.84
65872;BME280;52653;50.080;21.992;2023-05-22T08:44:05;99336.92;;;20.47;47.67
65872;BME280;52653;50.080;21.992;2023-05-22T08:46:41;99335.52;;;20.54;47.85
65872;BME280;52653;50.080;21.992;2023-05-22T08:49:24;99337.75;;;20.60;47.54
65872;BME280;52653;50.080;21.992;2023-05-22T08:52:11;99339.35;;;20.68;47.76
65872;BME280;52653;50.080;21.992;2023-05-22T08:54:51;99336.68;;;20.71;45.78
65872;BME280;52653;50.080;21.992;2023-05-22T08:57:29;99333.20;;;20.69;45.64
65872;BME280;52653;50.080;21.992;2023-05-22T09:00:03;99331.30;;;20.68;46.08
65872;BME280;52653;50.080;21.992;2023-05-22T09:02:37;99334.03;;;20.74;46.75
65872;BME280;52653;50.080;21.992;2023-05-22T09:05:12;99335.93;;;20.72;45.93
65872;BME280;52653;50.080;21.992;2023-05-22T09:07:45;99338.34;;;20.70;45.43
65872;BME280;52653;50.080;21.992;2023-05-22T09:10:19;99337.35;;;20.80;47.41
65872;BME280;52653;50.080;21.992;2023-05-22T09:13:03;99336.36;;;20.89;46.39
65872;BME280;52653;50.080;21.992;2023-05-22T09:15:39;99329.77;;;20.89;45.30
65872;BME280;52653;50.080;21.992;2023-05-22T09:18:32;99332.16;;;20.95;46.84
65872;BME280;52653;50.080;21.992;2023-05-22T09:21:05;99333.24;;;20.98;45.60
65872;BME280;52653;50.080;21.992;2023-05-22T09:24:06;99330.19;;;21.06;45.56
65872;BME280;52653;50.080;21.992;2023-05-22T09:26:42;99329.02;;;21.09;45.26
65872;BME280;52653;50.080;21.992;2023-05-22T09:29:14;99322.63;;;21.11;46.24
65872;BME280;52653;50.080;21.992;2023-05-22T09:31:47;99320.52;;;21.25;46.26
65872;BME280;52653;50.080;21.992;2023-05-22T09:34:40;99316.29;;;21.39;45.69
65872;BME280;52653;50.080;21.992;2023-05-22T09:37:15;99315.02;;;21.50;45.20
65872;BME280;52653;50.080;21.992;2023-05-22T09:39:51;99309.55;;;21.62;44.84
65872;BME280;52653;50.080;21.992;2023-05-22T09:42:37;99304.10;;;21.75;44.37
65872;BME280;52653;50.080;21.992;2023-05-22T09:45:11;99309.95;;;21.79;44.44
65872;BME280;52653;50.080;21.992;2023-05-22T09:48:05;99297.74;;;21.84;44.53
65872;BME280;52653;50.080;21.992;2023-05-22T09:50:39;99291.73;;;21.89;44.77
65872;BME280;52653;50.080;21.992;2023-05-22T09:53:16;99291.52;;;21.97;44.93
65872;BME280;52653;50.080;21.992;2023-05-22T09:55:53;99291.70;;;22.00;42.71
65872;BME280;52653;50.080;21.992;2023-05-22T09:58:30;99293.66;;;22.04;43.09
65872;BME280;52653;50.080;21.992;2023-05-22T10:01:08;99292.83;;;22.16;44.91
65872;BME280;52653;50.080;21.992;2023-05-22T10:03:45;99291.41;;;22.33;43.26
65872;BME280;52653;50.080;21.992;2023-05-22T10:06:21;99291.85;;;22.41;42.77
65872;BME280;52653;50.080;21.992;2023-05-22T10:09:11;99288.31;;;22.47;42.74
65872;BME280;52653;50.080;21.992;2023-05-22T10:11:53;99287.20;;;22.54;44.60
65872;BME280;52653;50.080;21.992;2023-05-22T10:14:26;99292.02;;;22.67;42.34
65872;BME280;52653;50.080;21.992;2023-05-22T10:17:10;99282.39;;;22.73;42.32
65872;BME280;52653;50.080;21.992;2023-05-22T10:19:47;99281.17;;;22.88;42.45
65872;BME280;52653;50.080;21.992;2023-05-22T10:22:24;99276.17;;;22.98;41.27
65872;BME280;52653;50.080;21.992;2023-05-22T10:25:09;99275.44;;;23.04;40.87
65872;BME280;52653;50.080;21.992;2023-05-22T10:27:42;99272.52;;;23.05;41.50
65872;BME280;52653;50.080;21.992;2023-05-22T10:33:26;99275.45;;;23.13;40.12
65872;BME280;52653;50.080;21.992;2023-05-22T10:36:04;99266.73;;;23.22;40.12
65872;BME280;52653;50.080;21.992;2023-05-22T10:39:06;99269.49;;;23.29;40.91
65872;BME280;52653;50.080;21.992;2023-05-22T10:41:43;99268.85;;;23.34;40.26
65872;BME280;52653;50.080;21.992;2023-05-22T10:44:15;99265.83;;;23.31;39.94
65872;BME280;52653;50.080;21.992;2023-05-22T10:46:50;99260.61;;;23.22;39.61
65872;BME280;52653;50.080;21.992;2023-05-22T10:49:23;99263.88;;;23.15;39.62
65872;BME280;52653;50.080;21.992;2023-05-22T10:51:59;99263.33;;;23.09;40.37
65872;BME280;52653;50.080;21.992;2023-05-22T10:54:43;99263.30;;;23.10;40.27
65872;BME280;52653;50.080;21.992;2023-05-22T10:57:16;99263.98;;;23.07;39.54
65872;BME280;52653;50.080;21.992;2023-05-22T10:59:51;99258.48;;;23.07;39.20
65872;BME280;52653;50.080;21.992;2023-05-22T11:02:44;99259.86;;;23.11;40.65
65872;BME280;52653;50.080;21.992;2023-05-22T11:05:36;99254.21;;;23.18;39.50
65872;BME280;52653;50.080;21.992;2023-05-22T11:08:34;99251.22;;;23.23;39.38
65872;BME280;52653;50.080;21.992;2023-05-22T11:11:13;99244.95;;;23.36;39.15
65872;BME280;52653;50.080;21.992;2023-05-22T11:13:52;99249.48;;;23.50;39.49
65872;BME280;52653;50.080;21.992;2023-05-22T11:16:25;99245.56;;;23.56;38.58
65872;BME280;52653;50.080;21.992;2023-05-22T11:19:06;99245.11;;;23.64;38.67
65872;BME280;52653;50.080;21.992;2023-05-22T11:22:15;99248.14;;;23.67;37.12
65872;BME280;52653;50.080;21.992;2023-05-22T11:25:18;99250.98;;;23.70;36.89
65872;BME280;52653;50.080;21.992;2023-05-22T11:28:05;99248.75;;;23.68;37.31
65872;BME280;52653;50.080;21.992;2023-05-22T11:31:00;99249.14;;;23.53;37.31
65872;BME280;52653;50.080;21.992;2023-05-22T11:33:54;99249.42;;;23.41;37.69
65872;BME280;52653;50.080;21.992;2023-05-22T11:36:47;99247.27;;;23.24;37.95
65872;BME280;52653;50.080;21.992;2023-05-22T11:39:34;99247.84;;;23.29;38.72
65872;BME280;52653;50.080;21.992;2023-05-22T11:42:27;99242.14;;;23.41;38.86
65872;BME280;52653;50.080;21.992;2023-05-22T11:45:21;99241.55;;;23.36;37.66
65872;BME280;52653;50.080;21.992;2023-05-22T11:48:14;99237.59;;;23.24;37.86
65872;BME280;52653;50.080;21.992;2023-05-22T11:51:04;99239.83;;;23.29;38.82
65872;BME280;52653;50.080;21.992;2023-05-22T11:53:52;99238.05;;;23.31;39.10
65872;BME280;52653;50.080;21.992;2023-05-22T11:56:29;99240.42;;;23.36;39.00
65872;BME280;52653;50.080;21.992;2023-05-22T11:59:16;99236.92;;;23.47;39.00
65872;BME280;52653;50.080;21.992;2023-05-22T12:02:02;99235.58;;;23.58;38.88
65872;BME280;52653;50.080;21.992;2023-05-22T12:04:46;99239.34;;;23.70;38.93
65872;BME280;52653;50.080;21.992;2023-05-22T12:07:39;99231.92;;;23.77;37.69
65872;BME280;52653;50.080;21.992;2023-05-22T12:10:27;99227.89;;;23.90;39.00
65872;BME280;52653;50.080;21.992;2023-05-22T12:13:27;99229.16;;;24.10;38.37
65872;BME280;52653;50.080;21.992;2023-05-22T12:16:20;99227.73;;;24.19;36.10
65872;BME280;52653;50.080;21.992;2023-05-22T12:19:05;99223.13;;;24.23;35.81
65872;BME280;52653;50.080;21.992;2023-05-22T12:21:59;99216.05;;;24.27;35.02
65872;BME280;52653;50.080;21.992;2023-05-22T12:24:45;99219.16;;;24.26;36.75
65872;BME280;52653;50.080;21.992;2023-05-22T12:27:38;99210.98;;;24.17;36.58
65872;BME280;52653;50.080;21.992;2023-05-22T12:30:40;99208.77;;;24.06;36.44
65872;BME280;52653;50.080;21.992;2023-05-22T12:33:29;99202.92;;;23.94;36.13
65872;BME280;52653;50.080;21.992;2023-05-22T12:36:21;99203.96;;;23.97;36.61
65872;BME280;52653;50.080;21.992;2023-05-22T12:39:28;99205.98;;;23.96;36.45
65872;BME280;52653;50.080;21.992;2023-05-22T12:42:13;99209.38;;;24.08;36.72
65872;BME280;52653;50.080;21.992;2023-05-22T12:44:57;99210.84;;;24.19;36.33
65872;BME280;52653;50.080;21.992;2023-05-22T12:47:43;99209.45;;;24.33;36.23
65872;BME280;52653;50.080;21.992;2023-05-22T12:50:36;99203.67;;;24.50;35.39
65872;BME280;52653;50.080;21.992;2023-05-22T12:53:23;99206.66;;;24.62;36.36
65872;BME280;52653;50.080;21.992;2023-05-22T12:56:17;99205.27;;;24.80;36.62
65872;BME280;52653;50.080;21.992;2023-05-22T12:59:10;99201.40;;;24.87;35.19
65872;BME280;52653;50.080;21.992;2023-05-22T13:02:04;99200.23;;;24.81;35.27
65872;BME280;52653;50.080;21.992;2023-05-22T13:04:58;99191.58;;;24.92;36.59
65872;BME280;52653;50.080;21.992;2023-05-22T13:07:51;99187.61;;;24.95;34.64
65872;BME280;52653;50.080;21.992;2023-05-22T13:10:44;99189.73;;;24.82;33.70
65872;BME280;52653;50.080;21.992;2023-05-22T13:13:17;99193.02;;;24.76;34.41
65872;BME280;52653;50.080;21.992;2023-05-22T13:16:10;99187.80;;;24.73;33.72
65872;BME280;52653;50.080;21.992;2023-05-22T13:19:02;99184.41;;;24.73;33.77
65872;BME280;52653;50.080;21.992;2023-05-22T13:21:56;99183.25;;;24.72;34.90
65872;BME280;52653;50.080;21.992;2023-05-22T13:24:48;99177.05;;;24.81;34.97
65872;BME280;52653;50.080;21.992;2023-05-22T13:27:24;99172.75;;;24.91;35.34
65872;BME280;52653;50.080;21.992;2023-05-22T13:30:17;99176.23;;;24.96;34.95
65872;BME280;52653;50.080;21.992;2023-05-22T13:33:10;99172.17;;;24.92;34.01
65872;BME280;52653;50.080;21.992;2023-05-22T13:35:57;99171.42;;;24.95;34.75
65872;BME280;52653;50.080;21.992;2023-05-22T13:38:52;99166.59;;;25.01;34.42
65872;BME280;52653;50.080;21.992;2023-05-22T13:41:39;99164.02;;;24.99;33.78
65872;BME280;52653;50.080;21.992;2023-05-22T13:44:32;99161.20;;;24.92;33.70
65872;BME280;52653;50.080;21.992;2023-05-22T13:47:25;99159.67;;;24.91;33.33
65872;BME280;52653;50.080;21.992;2023-05-22T13:50:11;99155.59;;;24.88;32.63
65872;BME280;52653;50.080;21.992;2023-05-22T13:53:04;99154.83;;;24.81;33.02
65872;BME280;52653;50.080;21.992;2023-05-22T13:55:47;99148.31;;;24.82;33.29
65872;BME280;52653;50.080;21.992;2023-05-22T13:58:39;99143.27;;;24.84;32.87
65872;BME280;52653;50.080;21.992;2023-05-22T14:01:31;99141.85;;;24.98;33.77
65872;BME280;52653;50.080;21.992;2023-05-22T14:04:25;99139.46;;;25.09;34.09
65872;BME280;52653;50.080;21.992;2023-05-22T14:07:11;99131.95;;;25.22;34.35
65872;BME280;52653;50.080;21.992;2023-05-22T14:10:02;99128.35;;;25.40;34.66
65872;BME280;52653;50.080;21.992;2023-05-22T14:12:56;99129.38;;;25.38;32.42
65872;BME280;52653;50.080;21.992;2023-05-22T14:15:48;99126.70;;;25.35;33.61
65872;BME280;52653;50.080;21.992;2023-05-22T14:18:41;99125.84;;;25.43;33.84
65872;BME280;52653;50.080;21.992;2023-05-22T14:21:37;99126.71;;;25.50;33.76
65872;BME280;52653;50.080;21.992;2023-05-22T14:24:30;99125.22;;;25.74;34.23
65872;BME280;52653;50.080;21.992;2023-05-22T14:27:15;99120.98;;;25.89;33.41
65872;BME280;52653;50.080;21.992;2023-05-22T14:30:09;99114.64;;;25.82;32.44
65872;BME280;52653;50.080;21.992;2023-05-22T14:32:56;99113.47;;;25.83;32.32
65872;BME280;52653;50.080;21.992;2023-05-22T14:35:39;99112.59;;;25.75;32.59
65872;BME280;52653;50.080;21.992;2023-05-22T14:38:34;99111.45;;;25.68;32.72
65872;BME280;52653;50.080;21.992;2023-05-22T14:41:17;99110.95;;;25.73;32.77
65872;BME280;52653;50.080;21.992;2023-05-22T14:44:09;99107.77;;;25.75;32.21
65872;BME280;52653;50.080;21.992;2023-05-22T14:47:02;99103.08;;;25.67;32.37
65872;BME280;52653;50.080;21.992;2023-05-22T14:49:48;99106.98;;;25.68;32.91
65872;BME280;52653;50.080;21.992;2023-05-22T14:52:41;99101.10;;;25.72;31.97